createdAt,value
2018-05-01T00:00:30.614Z,996.09
2018-05-01T00:02:23.520Z,996.11
2018-05-01T00:03:23.537Z,996.13
2018-05-01T00:05:16.457Z,996.12
2018-05-01T00:06:16.454Z,996.07
2018-05-01T00:08:09.603Z,996.13
2018-05-01T00:09:09.602Z,996.19
2018-05-01T00:11:02.503Z,996.17
2018-05-01T00:12:02.521Z,996.15
2018-05-01T00:13:55.442Z,996.26
2018-05-01T00:14:55.443Z,996.23
2018-05-01T00:16:48.342Z,996.23
2018-05-01T00:17:48.362Z,996.23
2018-05-01T00:19:41.282Z,996.30
2018-05-01T00:20:41.282Z,996.25
2018-05-01T00:22:34.183Z,996.34
2018-05-01T00:23:34.201Z,996.33
2018-05-01T00:25:27.118Z,996.40
2018-05-01T00:26:27.119Z,996.32
2018-05-01T00:28:20.022Z,996.33
2018-05-01T00:29:20.040Z,996.43
2018-05-01T00:31:12.958Z,996.46
2018-05-01T00:32:12.959Z,996.31
2018-05-01T00:34:06.092Z,996.49
2018-05-01T00:35:06.090Z,996.47
2018-05-01T00:36:58.994Z,996.45
2018-05-01T00:37:59.009Z,996.59
2018-05-01T00:39:51.935Z,996.52
2018-05-01T00:40:51.966Z,996.53
2018-05-01T00:42:45.033Z,996.58
2018-05-01T00:43:45.051Z,996.61
2018-05-01T00:45:37.969Z,996.57
2018-05-01T00:46:37.968Z,996.52
2018-05-01T00:48:30.873Z,996.53
2018-05-01T00:49:30.889Z,996.57
2018-05-01T00:51:23.821Z,996.63
2018-05-01T00:52:23.813Z,996.64
2018-05-01T00:54:16.734Z,996.66
2018-05-01T00:55:16.729Z,996.60
2018-05-01T00:57:09.632Z,996.64
2018-05-01T00:58:09.651Z,996.61
2018-05-01T01:00:02.570Z,996.66
2018-05-01T01:01:02.570Z,996.70
2018-05-01T01:02:55.466Z,996.78
2018-05-01T01:03:55.486Z,996.76
2018-05-01T01:05:48.402Z,996.66
2018-05-01T01:06:48.402Z,996.77
2018-05-01T01:08:41.304Z,996.75
2018-05-01T01:09:41.320Z,996.81
2018-05-01T01:11:34.238Z,996.80
2018-05-01T01:12:34.239Z,996.81
2018-05-01T01:14:27.139Z,996.84
2018-05-01T01:15:27.157Z,996.82
2018-05-01T01:17:20.076Z,996.88
2018-05-01T01:18:20.073Z,996.88
2018-05-01T01:20:12.991Z,996.77
2018-05-01T01:21:12.992Z,996.87
2018-05-01T01:23:05.891Z,996.90
2018-05-01T01:24:05.910Z,996.89
2018-05-01T01:25:58.822Z,996.81
2018-05-01T01:26:58.823Z,996.83
2018-05-01T01:28:51.721Z,996.78
2018-05-01T01:29:51.739Z,996.81
2018-05-01T01:31:44.663Z,996.94
2018-05-01T01:32:44.660Z,996.98
2018-05-01T01:34:37.555Z,997.04
2018-05-01T01:35:37.572Z,996.95
2018-05-01T01:37:30.490Z,996.98
2018-05-01T01:38:30.491Z,996.95
2018-05-01T01:40:23.386Z,996.99
2018-05-01T01:41:23.405Z,996.99
2018-05-01T01:43:16.322Z,997.02
2018-05-01T01:44:16.321Z,996.99
2018-05-01T01:46:09.238Z,997.02
2018-05-01T01:47:09.238Z,997.12
2018-05-01T01:49:02.137Z,997.06
2018-05-01T01:50:02.165Z,997.15
2018-05-01T01:51:55.077Z,997.10
2018-05-01T01:52:55.075Z,997.07
2018-05-01T01:54:47.973Z,997.15
2018-05-01T01:55:47.992Z,997.20
2018-05-01T01:57:40.906Z,997.18
2018-05-01T01:58:40.907Z,997.17
2018-05-01T02:00:33.806Z,997.13
2018-05-01T02:01:33.824Z,997.16
2018-05-01T02:03:26.740Z,997.23
2018-05-01T02:04:26.739Z,997.19
2018-05-01T02:06:19.638Z,997.23
2018-05-01T02:07:19.656Z,997.20
2018-05-01T02:09:12.573Z,997.19
2018-05-01T02:10:12.572Z,997.32
2018-05-01T02:12:05.488Z,997.24
2018-05-01T02:13:05.487Z,997.32
2018-05-01T02:14:58.384Z,997.22
2018-05-01T02:15:58.401Z,997.28
2018-05-01T02:17:51.326Z,997.19
2018-05-01T02:18:51.319Z,997.25
2018-05-01T02:20:44.217Z,997.26
2018-05-01T02:21:44.236Z,997.28
2018-05-01T02:23:37.152Z,997.23
2018-05-01T02:24:37.149Z,997.35
2018-05-01T02:26:30.049Z,997.38
2018-05-01T02:27:30.070Z,997.39
2018-05-01T02:29:23.212Z,997.31
2018-05-01T02:30:23.212Z,997.49
2018-05-01T02:32:16.131Z,997.39
2018-05-01T02:33:16.129Z,997.39
2018-05-01T02:35:09.026Z,997.35
2018-05-01T02:36:09.046Z,997.31
2018-05-01T02:38:01.959Z,997.41
2018-05-01T02:39:01.963Z,997.38
2018-05-01T02:40:54.856Z,997.40
2018-05-01T02:41:54.874Z,997.38
2018-05-01T02:43:47.795Z,997.36
2018-05-01T02:44:47.792Z,997.42
2018-05-01T02:46:40.690Z,997.40
2018-05-01T02:47:40.707Z,997.44
2018-05-01T02:49:33.625Z,997.49
2018-05-01T02:50:33.626Z,997.39
2018-05-01T02:52:26.520Z,997.41
2018-05-01T02:53:26.539Z,997.54
2018-05-01T02:55:19.455Z,997.47
2018-05-01T02:56:19.452Z,997.46
2018-05-01T02:58:12.373Z,997.50
2018-05-01T02:59:12.371Z,997.48
2018-05-01T03:01:05.270Z,997.48
2018-05-01T03:02:05.288Z,997.50
2018-05-01T03:03:58.207Z,997.52
2018-05-01T03:04:58.204Z,997.52
2018-05-01T03:06:51.100Z,997.50
2018-05-01T03:07:51.120Z,997.45
2018-05-01T03:09:44.130Z,997.52
2018-05-01T03:10:44.033Z,997.53
2018-05-01T03:12:36.931Z,997.47
2018-05-01T03:13:36.954Z,997.50
2018-05-01T03:15:29.865Z,997.57
2018-05-01T03:16:29.864Z,997.55
2018-05-01T03:18:22.784Z,997.56
2018-05-01T03:19:22.779Z,997.59
2018-05-01T03:21:15.683Z,997.62
2018-05-01T03:22:15.694Z,997.49
2018-05-01T03:24:08.614Z,997.50
2018-05-01T03:25:08.613Z,997.57
2018-05-01T03:27:01.512Z,997.53
2018-05-01T03:28:01.529Z,997.54
2018-05-01T03:29:54.624Z,997.57
2018-05-01T03:30:54.619Z,997.55
2018-05-01T03:32:47.519Z,997.56
2018-05-01T03:33:47.537Z,997.54
2018-05-01T03:35:40.453Z,997.59
2018-05-01T03:36:40.460Z,997.66
2018-05-01T03:38:33.366Z,997.67
2018-05-01T03:39:33.364Z,997.59
2018-05-01T03:41:26.260Z,997.78
2018-05-01T03:42:26.282Z,997.80
2018-05-01T03:44:19.196Z,997.75
2018-05-01T03:45:19.195Z,997.77
2018-05-01T03:47:12.091Z,997.73
2018-05-01T03:48:12.107Z,997.78
2018-05-01T03:50:05.197Z,997.88
2018-05-01T03:51:05.199Z,997.83
2018-05-01T03:52:58.098Z,997.84
2018-05-01T03:53:58.113Z,997.80
2018-05-01T03:55:51.053Z,997.90
2018-05-01T03:56:51.028Z,997.91
2018-05-01T03:58:43.922Z,997.91
2018-05-01T03:59:43.942Z,997.83
2018-05-01T04:01:37.017Z,997.90
2018-05-01T04:02:37.012Z,997.94
2018-05-01T04:04:29.936Z,997.91
2018-05-01T04:05:29.931Z,997.96
2018-05-01T04:07:22.835Z,997.96
2018-05-01T04:08:22.855Z,997.97
2018-05-01T04:10:15.772Z,997.98
2018-05-01T04:11:15.769Z,997.96
2018-05-01T04:13:08.669Z,998.04
2018-05-01T04:14:08.687Z,997.98
2018-05-01T04:16:01.603Z,998.05
2018-05-01T04:17:01.601Z,998.12
2018-05-01T04:18:54.497Z,998.13
2018-05-01T04:19:54.513Z,998.05
2018-05-01T04:21:47.430Z,998.14
2018-05-01T04:22:47.430Z,998.17
2018-05-01T04:24:40.326Z,998.20
2018-05-01T04:25:40.341Z,998.11
2018-05-01T04:27:33.259Z,998.21
2018-05-01T04:28:33.255Z,998.24
2018-05-01T04:30:26.180Z,998.22
2018-05-01T04:31:26.175Z,998.22
2018-05-01T04:33:19.071Z,998.22
2018-05-01T04:34:19.090Z,998.33
2018-05-01T04:36:12.007Z,998.29
2018-05-01T04:37:12.004Z,998.30
2018-05-01T04:39:05.088Z,998.32
2018-05-01T04:40:05.107Z,998.32
2018-05-01T04:41:58.021Z,998.50
2018-05-01T04:42:58.020Z,998.40
2018-05-01T04:44:50.916Z,998.39
2018-05-01T04:45:50.935Z,998.39
2018-05-01T04:47:43.847Z,998.47
2018-05-01T04:48:43.847Z,998.49
2018-05-01T04:50:36.742Z,998.43
2018-05-01T04:51:36.827Z,998.57
2018-05-01T04:53:29.677Z,998.50
2018-05-01T04:54:29.675Z,998.51
2018-05-01T04:56:22.594Z,998.62
2018-05-01T04:57:22.596Z,998.63
2018-05-01T04:59:15.492Z,998.66
2018-05-01T05:00:15.512Z,998.70
2018-05-01T05:02:08.434Z,998.65
2018-05-01T05:03:08.432Z,998.76
2018-05-01T05:05:01.333Z,998.71
2018-05-01T05:06:01.347Z,998.79
2018-05-01T05:07:54.273Z,998.78
2018-05-01T05:08:54.270Z,998.76
2018-05-01T05:10:47.171Z,998.77
2018-05-01T05:11:47.187Z,998.90
2018-05-01T05:13:40.104Z,998.86
2018-05-01T05:14:40.101Z,998.94
2018-05-01T05:16:33.018Z,998.91
2018-05-01T05:17:33.020Z,998.95
2018-05-01T05:19:25.914Z,998.92
2018-05-01T05:20:26.010Z,998.96
2018-05-01T05:22:18.850Z,999.03
2018-05-01T05:23:18.855Z,998.92
2018-05-01T05:25:11.742Z,999.05
2018-05-01T05:26:11.758Z,999.14
2018-05-01T05:28:04.675Z,999.21
2018-05-01T05:29:04.673Z,999.18
2018-05-01T05:30:57.575Z,999.16
2018-05-01T05:31:57.590Z,999.29
2018-05-01T05:33:50.509Z,999.21
2018-05-01T05:34:50.506Z,999.22
2018-05-01T05:36:43.404Z,999.30
2018-05-01T05:37:43.426Z,999.27
2018-05-01T05:39:36.337Z,999.33
2018-05-01T05:40:36.338Z,999.23
2018-05-01T05:42:29.253Z,999.33
2018-05-01T05:43:29.252Z,999.31
2018-05-01T05:45:22.148Z,999.39
2018-05-01T05:46:22.167Z,999.44
2018-05-01T05:48:15.087Z,999.46
2018-05-01T05:49:15.081Z,999.49
2018-05-01T05:51:07.978Z,999.65
2018-05-01T05:52:08.000Z,999.54
2018-05-01T05:54:00.914Z,999.42
2018-05-01T05:55:00.918Z,999.62
2018-05-01T05:56:53.810Z,999.67
2018-05-01T05:57:53.829Z,999.70
2018-05-01T05:59:46.748Z,999.68
2018-05-01T06:00:46.756Z,999.75
2018-05-01T06:02:39.685Z,999.72
2018-05-01T06:03:39.663Z,999.79
2018-05-01T06:05:32.559Z,999.70
2018-05-01T06:06:32.577Z,999.80
2018-05-01T06:08:25.568Z,999.91
2018-05-01T06:09:25.494Z,999.79
2018-05-01T06:11:18.398Z,999.88
2018-05-01T06:12:18.417Z,999.84
2018-05-01T06:14:11.334Z,999.84
2018-05-01T06:15:11.333Z,999.87
2018-05-01T06:17:04.229Z,999.83
2018-05-01T06:18:04.247Z,999.85
2018-05-01T06:19:57.162Z,999.95
2018-05-01T06:20:57.160Z,999.82
2018-05-01T06:22:50.059Z,999.93
2018-05-01T06:23:50.075Z,999.90
2018-05-01T06:25:42.992Z,999.93
2018-05-01T06:26:43.045Z,1000.04
2018-05-01T06:28:35.914Z,1000.01
2018-05-01T06:29:35.905Z,1000.12
2018-05-01T06:31:28.954Z,1000.08
2018-05-01T06:32:28.973Z,1000.15
2018-05-01T06:34:21.891Z,1000.18
2018-05-01T06:35:21.891Z,1000.26
2018-05-01T06:37:14.794Z,1000.25
2018-05-01T06:38:14.810Z,1000.28
2018-05-01T06:40:07.726Z,1000.28
2018-05-01T06:41:07.725Z,1000.38
2018-05-01T06:43:00.625Z,1000.28
2018-05-01T06:44:00.653Z,1000.40
2018-05-01T06:45:53.559Z,1000.27
2018-05-01T06:46:53.556Z,1000.37
2018-05-01T06:48:46.452Z,1000.38
2018-05-01T06:49:46.469Z,1000.42
2018-05-01T06:51:39.387Z,1000.50
2018-05-01T06:52:39.386Z,1000.50
2018-05-01T06:54:32.301Z,1000.58
2018-05-01T06:55:32.302Z,1000.50
2018-05-01T06:57:25.205Z,1000.54
2018-05-01T06:58:25.218Z,1000.63
2018-05-01T07:00:18.140Z,1000.70
2018-05-01T07:01:18.133Z,1000.68
2018-05-01T07:03:11.032Z,1000.80
2018-05-01T07:04:11.133Z,1000.83
2018-05-01T07:06:03.969Z,1000.77
2018-05-01T07:07:03.966Z,1000.85
2018-05-01T07:08:56.861Z,1000.90
2018-05-01T07:09:56.972Z,1000.97
2018-05-01T07:11:49.797Z,1000.90
2018-05-01T07:12:49.795Z,1000.97
2018-05-01T07:14:42.694Z,1000.93
2018-05-01T07:15:42.726Z,1001.02
2018-05-01T07:17:35.628Z,1000.98
2018-05-01T07:18:35.628Z,1001.03
2018-05-01T07:20:28.545Z,1001.07
2018-05-01T07:21:28.543Z,1001.15
2018-05-01T07:23:21.440Z,1001.16
2018-05-01T07:24:21.459Z,1001.24
2018-05-01T07:26:14.376Z,1001.22
2018-05-01T07:27:14.375Z,1001.28
2018-05-01T07:29:07.275Z,1001.29
2018-05-01T07:30:07.290Z,1001.34
2018-05-01T07:32:00.207Z,1001.34
2018-05-01T07:33:00.207Z,1001.34
2018-05-01T07:34:53.102Z,1001.35
2018-05-01T07:35:53.119Z,1001.39
2018-05-01T07:37:46.036Z,1001.38
2018-05-01T07:38:46.034Z,1001.42
2018-05-01T07:40:38.928Z,1001.39
2018-05-01T07:41:38.980Z,1001.42
2018-05-01T07:43:31.866Z,1001.47
2018-05-01T07:44:31.864Z,1001.45
2018-05-01T07:46:24.779Z,1001.50
2018-05-01T07:47:24.776Z,1001.44
2018-05-01T07:49:17.673Z,1001.49
2018-05-01T07:50:17.694Z,1001.56
2018-05-01T07:52:10.638Z,1001.52
2018-05-01T07:53:10.625Z,1001.66
2018-05-01T07:55:03.525Z,1001.61
2018-05-01T07:56:03.544Z,1001.67
2018-05-01T07:57:56.459Z,1001.54
2018-05-01T07:58:56.457Z,1001.69
2018-05-01T08:00:49.355Z,1001.73
2018-05-01T08:01:49.373Z,1001.73
2018-05-01T08:03:42.290Z,1001.78
2018-05-01T08:04:42.293Z,1001.78
2018-05-01T08:06:35.185Z,1001.79
2018-05-01T08:07:35.205Z,1001.82
2018-05-01T08:09:28.127Z,1001.87
2018-05-01T08:10:28.121Z,1001.83
2018-05-01T08:12:21.034Z,1001.86
2018-05-01T08:13:21.033Z,1001.89
2018-05-01T08:15:13.933Z,1001.95
2018-05-01T08:16:13.950Z,1001.98
2018-05-01T08:18:06.867Z,1001.88
2018-05-01T08:19:06.868Z,1001.98
2018-05-01T08:20:59.765Z,1002.01
2018-05-01T08:21:59.783Z,1002.04
2018-05-01T08:23:52.705Z,1002.08
2018-05-01T08:24:52.700Z,1002.14
2018-05-01T08:26:45.597Z,1002.07
2018-05-01T08:27:45.618Z,1002.09
2018-05-01T08:29:38.532Z,1002.17
2018-05-01T08:30:38.543Z,1002.20
2018-05-01T08:32:31.444Z,1002.29
2018-05-01T08:33:31.450Z,1002.16
2018-05-01T08:35:24.367Z,1002.26
2018-05-01T08:36:24.424Z,1002.33
2018-05-01T08:38:17.284Z,1002.35
2018-05-01T08:39:17.282Z,1002.35
2018-05-01T08:41:10.185Z,1002.32
2018-05-01T08:42:10.204Z,1002.40
2018-05-01T08:44:03.127Z,1002.43
2018-05-01T08:45:03.127Z,1002.36
2018-05-01T08:46:56.029Z,1002.47
2018-05-01T08:47:56.046Z,1002.50
2018-05-01T08:49:48.966Z,1002.50
2018-05-01T08:50:48.966Z,1002.48
2018-05-01T08:52:41.864Z,1002.54
2018-05-01T08:53:41.884Z,1002.49
2018-05-01T08:55:34.799Z,1002.60
2018-05-01T08:56:34.800Z,1002.61
2018-05-01T08:58:27.722Z,1002.51
2018-05-01T08:59:27.721Z,1002.64
2018-05-01T09:01:20.624Z,1002.61
2018-05-01T09:02:20.641Z,1002.67
2018-05-01T09:04:13.577Z,1002.63
2018-05-01T09:05:13.560Z,1002.71
2018-05-01T09:07:06.461Z,1002.66
2018-05-01T09:08:06.485Z,1002.69
2018-05-01T09:09:59.403Z,1002.74
2018-05-01T09:10:59.407Z,1002.75
2018-05-01T09:12:52.305Z,1002.82
2018-05-01T09:13:52.325Z,1002.80
2018-05-01T09:15:45.249Z,1002.81
2018-05-01T09:16:45.249Z,1002.88
2018-05-01T09:18:38.170Z,1002.91
2018-05-01T09:19:38.172Z,1002.92
2018-05-01T09:21:31.073Z,1002.97
2018-05-01T09:22:31.173Z,1003.00
2018-05-01T09:24:24.015Z,1003.03
2018-05-01T09:25:24.126Z,1003.03
2018-05-01T09:27:16.916Z,1003.13
2018-05-01T09:28:16.945Z,1003.09
2018-05-01T09:30:09.861Z,1003.11
2018-05-01T09:31:09.862Z,1003.22
2018-05-01T09:33:02.764Z,1003.19
2018-05-01T09:34:02.787Z,1003.16
2018-05-01T09:35:55.710Z,1003.23
2018-05-01T09:36:55.711Z,1003.29
2018-05-01T09:38:48.637Z,1003.21
2018-05-01T09:39:48.637Z,1003.33
2018-05-01T09:41:41.547Z,1003.34
2018-05-01T09:42:41.566Z,1003.36
2018-05-01T09:44:34.488Z,1003.42
2018-05-01T09:45:34.490Z,1003.44
2018-05-01T09:47:27.429Z,1003.53
2018-05-01T09:48:27.418Z,1003.49
2018-05-01T09:50:20.338Z,1003.45
2018-05-01T09:51:20.341Z,1003.39
2018-05-01T09:53:13.303Z,1003.48
2018-05-01T09:54:13.266Z,1003.48
2018-05-01T09:56:06.192Z,1003.49
2018-05-01T09:57:06.196Z,1003.48
2018-05-01T09:58:59.117Z,1003.54
2018-05-01T09:59:59.125Z,1003.45
2018-05-01T10:01:52.024Z,1003.59
2018-05-01T10:02:52.044Z,1003.67
2018-05-01T10:04:44.976Z,1003.50
2018-05-01T10:05:44.976Z,1003.63
2018-05-01T10:07:37.885Z,1003.65
2018-05-01T10:08:37.907Z,1003.62
2018-05-01T10:10:30.833Z,1003.61
2018-05-01T10:11:31.148Z,1003.68
2018-05-01T10:13:23.739Z,1003.59
2018-05-01T10:14:23.762Z,1003.59
2018-05-01T10:16:16.696Z,1003.69
2018-05-01T10:17:16.693Z,1003.70
2018-05-01T10:19:09.620Z,1003.73
2018-05-01T10:20:09.623Z,1003.78
2018-05-01T10:22:02.525Z,1003.77
2018-05-01T10:23:02.548Z,1003.78
2018-05-01T10:24:55.478Z,1003.72
2018-05-01T10:25:55.478Z,1003.73
2018-05-01T10:27:48.385Z,1003.73
2018-05-01T10:28:48.408Z,1003.73
2018-05-01T10:30:41.349Z,1003.83
2018-05-01T10:31:41.338Z,1003.82
2018-05-01T10:33:34.243Z,1003.80
2018-05-01T10:34:34.266Z,1003.87
2018-05-01T10:36:27.191Z,1003.84
2018-05-01T10:37:27.200Z,1003.90
2018-05-01T10:39:20.120Z,1003.83
2018-05-01T10:40:20.125Z,1003.90
2018-05-01T10:42:13.029Z,1003.90
2018-05-01T10:43:13.049Z,1003.88
2018-05-01T10:45:05.974Z,1003.91
2018-05-01T10:46:05.977Z,1003.86
2018-05-01T10:47:58.883Z,1003.96
2018-05-01T10:48:58.905Z,1003.98
2018-05-01T10:50:51.830Z,1004.03
2018-05-01T10:51:51.833Z,1004.00
2018-05-01T10:53:44.752Z,1004.00
2018-05-01T10:54:44.774Z,1004.02
2018-05-01T10:56:37.854Z,1003.95
2018-05-01T10:57:37.860Z,1003.97
2018-05-01T10:59:30.781Z,1003.94
2018-05-01T11:00:30.787Z,1004.00
2018-05-01T11:02:23.694Z,1004.01
2018-05-01T11:03:23.716Z,1003.99
2018-05-01T11:05:16.641Z,1004.04
2018-05-01T11:06:16.642Z,1004.05
2018-05-01T11:08:09.550Z,1004.06
2018-05-01T11:09:09.571Z,1004.15
2018-05-01T11:11:02.497Z,1004.17
2018-05-01T11:12:02.502Z,1004.20
2018-05-01T11:13:55.408Z,1004.30
2018-05-01T11:14:55.434Z,1004.25
2018-05-01T11:16:48.362Z,1004.23
2018-05-01T11:17:48.436Z,1004.28
2018-05-01T11:19:41.293Z,1004.30
2018-05-01T11:20:41.295Z,1004.38
2018-05-01T11:22:34.204Z,1004.37
2018-05-01T11:23:34.227Z,1004.36
2018-05-01T11:25:27.155Z,1004.45
2018-05-01T11:26:27.156Z,1004.46
2018-05-01T11:28:20.067Z,1004.47
2018-05-01T11:29:20.088Z,1004.42
2018-05-01T11:31:13.027Z,1004.46
2018-05-01T11:32:13.023Z,1004.56
2018-05-01T11:34:06.138Z,1004.50
2018-05-01T11:35:06.161Z,1004.55
2018-05-01T11:36:59.093Z,1004.69
2018-05-01T11:37:59.092Z,1004.61
2018-05-01T11:39:52.171Z,1004.64
2018-05-01T11:40:52.174Z,1004.67
2018-05-01T11:42:45.085Z,1004.62
2018-05-01T11:43:45.108Z,1004.59
2018-05-01T11:45:38.036Z,1004.69
2018-05-01T11:46:38.038Z,1004.74
2018-05-01T11:48:30.948Z,1004.72
2018-05-01T11:49:30.969Z,1004.73
2018-05-01T11:51:23.897Z,1004.80
2018-05-01T11:52:23.906Z,1004.80
2018-05-01T11:54:16.809Z,1004.66
2018-05-01T11:55:16.832Z,1004.76
2018-05-01T11:57:09.758Z,1004.76
2018-05-01T11:58:09.764Z,1004.75
2018-05-01T12:00:02.690Z,1004.80
2018-05-01T12:01:02.700Z,1004.83
2018-05-01T12:02:55.602Z,1004.74
2018-05-01T12:03:55.625Z,1004.77
2018-05-01T12:05:48.554Z,1004.79
2018-05-01T12:06:48.559Z,1004.85
2018-05-01T12:08:41.466Z,1004.87
2018-05-01T12:09:41.491Z,1004.85
2018-05-01T12:11:34.418Z,1004.89
2018-05-01T12:12:34.423Z,1004.99
2018-05-01T12:14:27.333Z,1005.00
2018-05-01T12:15:27.356Z,1005.00
2018-05-01T12:17:20.282Z,1004.98
2018-05-01T12:18:20.288Z,1005.03
2018-05-01T12:20:13.243Z,1005.10
2018-05-01T12:21:13.240Z,1005.05
2018-05-01T12:23:06.153Z,1005.05
2018-05-01T12:24:06.175Z,1005.11
2018-05-01T12:25:59.105Z,1005.10
2018-05-01T12:26:59.191Z,1005.06
2018-05-01T12:28:52.079Z,1005.11
2018-05-01T12:29:52.051Z,1005.08
2018-05-01T12:31:44.984Z,1005.11
2018-05-01T12:32:45.014Z,1005.09
2018-05-01T12:34:37.901Z,1005.07
2018-05-01T12:35:37.925Z,1005.07
2018-05-01T12:37:30.860Z,1005.05
2018-05-01T12:38:30.858Z,1005.15
2018-05-01T12:40:23.804Z,1005.06
2018-05-01T12:41:23.794Z,1005.06
2018-05-01T12:43:17.708Z,1005.18
2018-05-01T12:44:17.731Z,1005.18
2018-05-01T12:46:10.660Z,1005.14
2018-05-01T12:47:10.666Z,1005.18
2018-05-01T12:49:03.578Z,1005.11
2018-05-01T12:50:03.599Z,1005.23
2018-05-01T12:51:56.537Z,1005.15
2018-05-01T12:52:56.538Z,1005.11
2018-05-01T12:54:49.453Z,1005.14
2018-05-01T12:55:49.478Z,1005.23
2018-05-01T12:57:42.410Z,1005.23
2018-05-01T12:58:42.421Z,1005.29
2018-05-01T13:00:35.357Z,1005.22
2018-05-01T13:01:35.350Z,1005.23
2018-05-01T13:03:28.260Z,1005.14
2018-05-01T13:04:28.285Z,1005.12
2018-05-01T13:06:21.216Z,1005.17
2018-05-01T13:07:21.219Z,1005.22
2018-05-01T13:09:14.130Z,1005.20
2018-05-01T13:10:14.154Z,1005.25
2018-05-01T13:12:07.087Z,1005.18
2018-05-01T13:13:07.089Z,1005.24
2018-05-01T13:15:00.002Z,1005.29
2018-05-01T13:16:00.026Z,1005.32
2018-05-01T13:17:52.954Z,1005.36
2018-05-01T13:18:52.958Z,1005.29
2018-05-01T13:20:45.885Z,1005.26
2018-05-01T13:21:45.891Z,1005.34
2018-05-01T13:23:38.820Z,1005.25
2018-05-01T13:24:38.823Z,1005.31
2018-05-01T13:26:31.753Z,1005.39
2018-05-01T13:27:31.757Z,1005.34
2018-05-01T13:29:24.705Z,1005.27
2018-05-01T13:30:24.691Z,1005.43
2018-05-01T13:32:17.620Z,1005.44
2018-05-01T13:33:17.622Z,1005.45
2018-05-01T13:35:10.533Z,1005.50
2018-05-01T13:36:10.557Z,1005.41
2018-05-01T13:38:03.485Z,1005.42
2018-05-01T13:39:03.491Z,1005.39
2018-05-01T13:40:56.424Z,1005.44
2018-05-01T13:41:56.427Z,1005.45
2018-05-01T13:43:49.356Z,1005.45
2018-05-01T13:44:49.366Z,1005.50
2018-05-01T13:46:42.443Z,1005.51
2018-05-01T13:47:42.452Z,1005.51
2018-05-01T13:49:35.360Z,1005.59
2018-05-01T13:50:35.453Z,1005.52
2018-05-01T13:52:28.318Z,1005.44
2018-05-01T13:53:28.318Z,1005.59
2018-05-01T13:55:21.282Z,1005.58
2018-05-01T13:56:21.250Z,1005.58
2018-05-01T13:58:14.178Z,1005.60
2018-05-01T13:59:14.245Z,1005.55
2018-05-01T14:01:07.097Z,1005.50
2018-05-01T14:02:07.132Z,1005.42
2018-05-01T14:04:00.050Z,1005.54
2018-05-01T14:05:00.054Z,1005.56
2018-05-01T14:06:52.986Z,1005.47
2018-05-01T14:07:52.994Z,1005.59
2018-05-01T14:09:45.901Z,1005.64
2018-05-01T14:10:45.926Z,1005.72
2018-05-01T14:12:38.850Z,1005.79
2018-05-01T14:13:38.858Z,1005.76
2018-05-01T14:15:31.766Z,1005.79
2018-05-01T14:16:31.849Z,1005.80
2018-05-01T14:18:24.717Z,1005.76
2018-05-01T14:19:24.724Z,1005.72
2018-05-01T14:21:17.769Z,1005.79
2018-05-01T14:22:17.797Z,1005.82
2018-05-01T14:24:10.791Z,1005.66
2018-05-01T14:25:10.794Z,1005.78
2018-05-01T14:27:03.904Z,1005.86
2018-05-01T14:28:03.902Z,1005.88
2018-05-01T14:29:56.815Z,1005.96
2018-05-01T14:30:56.836Z,1005.94
2018-05-01T14:32:49.768Z,1005.95
2018-05-01T14:33:49.770Z,1006.00
2018-05-01T14:35:42.678Z,1006.00
2018-05-01T14:36:42.702Z,1005.94
2018-05-01T14:38:35.632Z,1006.02
2018-05-01T14:39:35.634Z,1005.99
2018-05-01T14:41:28.541Z,1006.06
2018-05-01T14:42:28.567Z,1006.06
2018-05-01T14:44:21.493Z,1006.00
2018-05-01T14:45:21.503Z,1006.01
2018-05-01T14:47:14.427Z,1006.04
2018-05-01T14:48:14.433Z,1006.06
2018-05-01T14:50:07.346Z,1006.03
2018-05-01T14:51:07.364Z,1006.06
2018-05-01T14:53:01.285Z,1006.06
2018-05-01T14:54:01.294Z,1005.98
2018-05-01T14:55:54.201Z,1006.11
2018-05-01T14:56:54.225Z,1006.13
2018-05-01T14:58:47.153Z,1006.24
2018-05-01T14:59:47.159Z,1006.13
2018-05-01T15:01:40.188Z,1006.15
2018-05-01T15:02:40.092Z,1006.16
2018-05-01T15:04:33.007Z,1006.20
2018-05-01T15:05:33.027Z,1006.20
2018-05-01T15:07:25.957Z,1006.22
2018-05-01T15:08:25.959Z,1006.24
2018-05-01T15:10:18.870Z,1006.25
2018-05-01T15:11:18.895Z,1006.26
2018-05-01T15:13:11.825Z,1006.29
2018-05-01T15:14:11.826Z,1006.29
2018-05-01T15:16:04.736Z,1006.31
2018-05-01T15:17:04.764Z,1006.31
2018-05-01T15:18:57.694Z,1006.35
2018-05-01T15:19:57.694Z,1006.35
2018-05-01T15:21:50.605Z,1006.33
2018-05-01T15:22:50.628Z,1006.39
2018-05-01T15:24:43.693Z,1006.37
2018-05-01T15:25:43.700Z,1006.34
2018-05-01T15:27:37.294Z,1006.48
2018-05-01T15:28:36.628Z,1006.42
2018-05-01T15:30:29.556Z,1006.51
2018-05-01T15:31:29.568Z,1006.52
2018-05-01T15:33:22.495Z,1006.47
2018-05-01T15:34:22.498Z,1006.52
2018-05-01T15:36:15.404Z,1006.50
2018-05-01T15:37:15.432Z,1006.49
2018-05-01T15:39:08.356Z,1006.52
2018-05-01T15:40:08.360Z,1006.52
2018-05-01T15:42:01.268Z,1006.54
2018-05-01T15:43:01.290Z,1006.48
2018-05-01T15:44:54.214Z,1006.50
2018-05-01T15:45:54.220Z,1006.45
2018-05-01T15:47:47.161Z,1006.43
2018-05-01T15:48:47.164Z,1006.49
2018-05-01T15:50:40.068Z,1006.50
2018-05-01T15:51:40.140Z,1006.47
2018-05-01T15:53:33.019Z,1006.52
2018-05-01T15:54:33.026Z,1006.48
2018-05-01T15:56:25.933Z,1006.50
2018-05-01T15:57:25.956Z,1006.56
2018-05-01T15:59:18.887Z,1006.60
2018-05-01T16:00:18.887Z,1006.58
2018-05-01T16:02:11.801Z,1006.68
2018-05-01T16:03:11.819Z,1006.64
2018-05-01T16:05:04.743Z,1006.68
2018-05-01T16:06:04.746Z,1006.66
2018-05-01T16:07:57.677Z,1006.74
2018-05-01T16:08:57.682Z,1006.72
2018-05-01T16:10:50.597Z,1006.66
2018-05-01T16:11:50.622Z,1006.64
2018-05-01T16:13:43.685Z,1006.65
2018-05-01T16:14:43.609Z,1006.61
2018-05-01T16:16:36.515Z,1006.59
2018-05-01T16:17:36.540Z,1006.59
2018-05-01T16:19:29.609Z,1006.69
2018-05-01T16:20:29.614Z,1006.67
2018-05-01T16:22:22.521Z,1006.71
2018-05-01T16:23:22.546Z,1006.77
2018-05-01T16:25:15.669Z,1006.74
2018-05-01T16:26:15.622Z,1006.80
2018-05-01T16:28:08.550Z,1006.73
2018-05-01T16:29:08.554Z,1006.76
2018-05-01T16:31:01.464Z,1006.72
2018-05-01T16:32:01.484Z,1006.75
2018-05-01T16:33:54.421Z,1006.79
2018-05-01T16:34:54.450Z,1006.79
2018-05-01T16:36:47.318Z,1006.77
2018-05-01T16:37:47.343Z,1006.75
2018-05-01T16:39:40.269Z,1006.81
2018-05-01T16:40:40.271Z,1006.72
2018-05-01T16:42:33.202Z,1006.69
2018-05-01T16:43:33.217Z,1006.72
2018-05-01T16:45:26.158Z,1006.74
2018-05-01T16:46:26.158Z,1006.76
2018-05-01T16:48:19.088Z,1006.74
2018-05-01T16:49:19.098Z,1006.77
2018-05-01T16:51:11.997Z,1006.79
2018-05-01T16:52:12.017Z,1006.76
2018-05-01T16:54:04.959Z,1006.73
2018-05-01T16:55:04.975Z,1006.75
2018-05-01T16:56:57.978Z,1006.70
2018-05-01T16:57:57.909Z,1006.75
2018-05-01T16:59:50.830Z,1006.75
2018-05-01T17:00:50.835Z,1006.79
2018-05-01T17:02:43.741Z,1006.80
2018-05-01T17:03:43.762Z,1006.78
2018-05-01T17:05:36.692Z,1006.74
2018-05-01T17:06:36.722Z,1006.76
2018-05-01T17:08:29.630Z,1006.74
2018-05-01T17:09:29.628Z,1006.73
2018-05-01T17:11:22.862Z,1006.76
2018-05-01T17:12:22.788Z,1006.76
2018-05-01T17:14:15.711Z,1006.75
2018-05-01T17:15:15.715Z,1006.76
2018-05-01T17:17:08.624Z,1006.76
2018-05-01T17:18:08.645Z,1006.74
2018-05-01T17:20:01.569Z,1006.74
2018-05-01T17:21:01.573Z,1006.79
2018-05-01T17:22:55.912Z,1006.84
2018-05-01T17:23:55.931Z,1006.88
2018-05-01T17:25:48.858Z,1006.94
2018-05-01T17:26:48.952Z,1006.98
2018-05-01T17:28:41.784Z,1006.98
2018-05-01T17:29:41.787Z,1006.94
2018-05-01T17:31:34.693Z,1006.88
2018-05-01T17:32:34.713Z,1006.91
2018-05-01T17:34:27.639Z,1006.87
2018-05-01T17:35:27.641Z,1006.91
2018-05-01T17:37:20.547Z,1006.95